This is the latest recevied weather packets stored in our database for station/object GM0VGI-13. If no packets are shown the sender has not sent any weather packets the latest 1 day(s).
| Time | Temp. | Humidity | Pressure | Rain* | Wind** | Luminosity | Snow |
|---|---|---|---|---|---|---|---|
| 1778081163 | 10° C | 65% | 1013.4 hPa | 0 mm | - | - | - |
| 1778081045 | 10° C | 66% | 1013.5 hPa | 0 mm | - | - | - |
| 1778079843 | 8.89° C | 67% | 1013.7 hPa | 0 mm | - | - | - |
| 1778078523 | 8.89° C | 66% | 1013.7 hPa | 0 mm | - | - | - |
| 1778076484 | 10° C | 63% | 1014 hPa | 0 mm | - | - | - |
| 1778075525 | 10.56° C | 62% | 1014.1 hPa | 0 mm | - | - | - |
| 1778075405 | 11.11° C | 62% | 1014.1 hPa | 0 mm | - | - | - |
| 1778073243 | 10.56° C | 63% | 1014.3 hPa | 0 mm | - | - | - |
| 1778071565 | 9.44° C | 65% | 1014.5 hPa | 0 mm | - | - | - |
| 1778066883 | 10.56° C | 53% | 1014.5 hPa | 0 mm | - | - | - |
| 1778064245 | 11.11° C | 57% | 1014.8 hPa | 0 mm | - | - | - |
| 1778063525 | 10.56° C | 56% | 1014.8 hPa | 0 mm | - | - | - |
| 1778062806 | 10.56° C | 57% | 1014.8 hPa | 0 mm | - | - | - |
| 1778062084 | 11.67° C | 53% | 1014.9 hPa | 0 mm | - | - | - |
| 1778061244 | 12.22° C | 53% | 1015 hPa | 0 mm | - | - | - |
| 1778059565 | 11.11° C | 57% | 1015 hPa | 0 mm | - | - | - |
| 1778059323 | 10.56° C | 58% | 1015 hPa | 0 mm | - | - | - |
| 1778057884 | 10° C | 56% | 1015.5 hPa | 0 mm | - | - | - |
| 1778057645 | 10.56° C | 58% | 1015.5 hPa | 0 mm | - | - | - |
| 1778057405 | 10.56° C | 60% | 1015.6 hPa | 0 mm | - | - | - |
| 1778057164 | 10.56° C | 61% | 1015.6 hPa | 0 mm | - | - | - |
| 1778056925 | 10.56° C | 62% | 1015.6 hPa | 0 mm | - | - | - |
| 1778055725 | 10° C | 65% | 1015.6 hPa | 0 mm | - | - | - |
| 1778054763 | 9.44° C | 68% | 1015.6 hPa | 0 mm | - | - | - |
| 1778054284 | 8.89° C | 69% | 1015.7 hPa | 0 mm | - | - | - |
* Rain latest hour (hover to see other rain measurements)
** Current wind speed in m/s (hover to see current wind gust speed)